sensor_id;sensor_type;location;lat;lon;timestamp;temperature;humidity
65598;SHT31;52267;51.984;20.956;2022-12-07T00:01:34;2.52;90.96
65598;SHT31;52267;51.984;20.956;2022-12-07T00:04:03;2.55;90.97
65598;SHT31;52267;51.984;20.956;2022-12-07T00:06:34;2.57;90.97
65598;SHT31;52267;51.984;20.956;2022-12-07T00:09:02;2.61;91.17
65598;SHT31;52267;51.984;20.956;2022-12-07T00:11:30;2.64;91.22
65598;SHT31;52267;51.984;20.956;2022-12-07T00:13:58;2.66;91.21
65598;SHT31;52267;51.984;20.956;2022-12-07T00:16:29;2.69;91.25
65598;SHT31;52267;51.984;20.956;2022-12-07T00:18:57;2.71;91.23
65598;SHT31;52267;51.984;20.956;2022-12-07T00:21:25;2.74;91.33
65598;SHT31;52267;51.984;20.956;2022-12-07T00:23:54;2.76;91.29
65598;SHT31;52267;51.984;20.956;2022-12-07T00:26:23;2.79;91.28
65598;SHT31;52267;51.984;20.956;2022-12-07T00:28:52;2.81;91.37
65598;SHT31;52267;51.984;20.956;2022-12-07T00:31:21;2.83;91.18
65598;SHT31;52267;51.984;20.956;2022-12-07T00:33:49;2.84;91.24
65598;SHT31;52267;51.984;20.956;2022-12-07T00:36:18;2.86;91.29
65598;SHT31;52267;51.984;20.956;2022-12-07T00:38:46;2.88;91.36
65598;SHT31;52267;51.984;20.956;2022-12-07T00:41:17;2.90;91.29
65598;SHT31;52267;51.984;20.956;2022-12-07T00:43:46;2.92;91.25
65598;SHT31;52267;51.984;20.956;2022-12-07T00:46:14;2.92;91.20
65598;SHT31;52267;51.984;20.956;2022-12-07T00:48:42;2.93;91.22
65598;SHT31;52267;51.984;20.956;2022-12-07T00:51:10;2.94;91.31
65598;SHT31;52267;51.984;20.956;2022-12-07T00:53:41;2.96;91.44
65598;SHT31;52267;51.984;20.956;2022-12-07T00:56:08;2.99;91.43
65598;SHT31;52267;51.984;20.956;2022-12-07T00:58:37;3.01;91.45
65598;SHT31;52267;51.984;20.956;2022-12-07T01:01:05;3.02;91.51
65598;SHT31;52267;51.984;20.956;2022-12-07T01:03:33;3.04;91.53
65598;SHT31;52267;51.984;20.956;2022-12-07T01:06:00;3.06;91.58
65598;SHT31;52267;51.984;20.956;2022-12-07T01:08:27;3.06;91.64
65598;SHT31;52267;51.984;20.956;2022-12-07T01:11:02;3.06;91.61
65598;SHT31;52267;51.984;20.956;2022-12-07T01:13:31;3.07;91.61
65598;SHT31;52267;51.984;20.956;2022-12-07T01:16:00;3.10;91.59
65598;SHT31;52267;51.984;20.956;2022-12-07T01:18:30;3.08;91.81
65598;SHT31;52267;51.984;20.956;2022-12-07T01:21:09;3.07;91.90
65598;SHT31;52267;51.984;20.956;2022-12-07T01:23:41;3.08;91.91
65598;SHT31;52267;51.984;20.956;2022-12-07T01:26:12;3.11;91.86
65598;SHT31;52267;51.984;20.956;2022-12-07T01:28:50;3.13;91.60
65598;SHT31;52267;51.984;20.956;2022-12-07T01:31:18;3.14;91.49
65598;SHT31;52267;51.984;20.956;2022-12-07T01:33:47;3.13;91.37
65598;SHT31;52267;51.984;20.956;2022-12-07T01:36:20;3.12;91.32
65598;SHT31;52267;51.984;20.956;2022-12-07T01:38:49;3.09;91.34
65598;SHT31;52267;51.984;20.956;2022-12-07T01:41:23;3.09;91.33
65598;SHT31;52267;51.984;20.956;2022-12-07T01:46:45;3.07;91.44
65598;SHT31;52267;51.984;20.956;2022-12-07T01:49:38;3.05;91.43
65598;SHT31;52267;51.984;20.956;2022-12-07T01:52:10;3.04;91.45
65598;SHT31;52267;51.984;20.956;2022-12-07T01:54:41;3.03;91.40
65598;SHT31;52267;51.984;20.956;2022-12-07T01:57:09;3.03;91.44
65598;SHT31;52267;51.984;20.956;2022-12-07T01:59:39;3.00;91.41
65598;SHT31;52267;51.984;20.956;2022-12-07T02:02:10;2.96;91.41
65598;SHT31;52267;51.984;20.956;2022-12-07T02:04:41;2.93;91.50
65598;SHT31;52267;51.984;20.956;2022-12-07T02:07:08;2.90;91.50
65598;SHT31;52267;51.984;20.956;2022-12-07T02:09:35;2.90;91.50
65598;SHT31;52267;51.984;20.956;2022-12-07T02:12:02;2.86;91.44
65598;SHT31;52267;51.984;20.956;2022-12-07T02:14:29;2.83;91.40
65598;SHT31;52267;51.984;20.956;2022-12-07T02:25:47;2.71;91.45
65598;SHT31;52267;51.984;20.956;2022-12-07T02:30:56;2.66;91.39
65598;SHT31;52267;51.984;20.956;2022-12-07T02:33:35;2.61;91.40
65598;SHT31;52267;51.984;20.956;2022-12-07T02:36:07;2.59;91.36
65598;SHT31;52267;51.984;20.956;2022-12-07T02:38:38;2.56;91.36
65598;SHT31;52267;51.984;20.956;2022-12-07T02:41:29;2.56;91.38
65598;SHT31;52267;51.984;20.956;2022-12-07T02:44:02;2.55;91.39
65598;SHT31;52267;51.984;20.956;2022-12-07T02:49:29;2.54;91.30
65598;SHT31;52267;51.984;20.956;2022-12-07T02:51:57;2.53;91.29
65598;SHT31;52267;51.984;20.956;2022-12-07T02:54:24;2.52;91.33
65598;SHT31;52267;51.984;20.956;2022-12-07T03:07:43;2.43;91.32
65598;SHT31;52267;51.984;20.956;2022-12-07T03:15:48;2.37;91.33
65598;SHT31;52267;51.984;20.956;2022-12-07T03:18:18;2.38;91.30
65598;SHT31;52267;51.984;20.956;2022-12-07T03:20:48;2.34;91.32
65598;SHT31;52267;51.984;20.956;2022-12-07T03:23:18;2.33;91.37
65598;SHT31;52267;51.984;20.956;2022-12-07T03:25:46;2.30;91.30
65598;SHT31;52267;51.984;20.956;2022-12-07T03:28:16;2.28;91.31
65598;SHT31;52267;51.984;20.956;2022-12-07T03:30:49;2.24;91.30
65598;SHT31;52267;51.984;20.956;2022-12-07T03:33:24;2.20;91.30
65598;SHT31;52267;51.984;20.956;2022-12-07T03:36:11;2.17;91.30
65598;SHT31;52267;51.984;20.956;2022-12-07T03:38:57;2.13;91.30
65598;SHT31;52267;51.984;20.956;2022-12-07T03:41:28;2.08;91.37
65598;SHT31;52267;51.984;20.956;2022-12-07T03:43:57;2.03;91.35
65598;SHT31;52267;51.984;20.956;2022-12-07T03:49:00;1.95;91.41
65598;SHT31;52267;51.984;20.956;2022-12-07T03:51:37;1.93;91.40
65598;SHT31;52267;51.984;20.956;2022-12-07T03:54:32;1.89;91.40
65598;SHT31;52267;51.984;20.956;2022-12-07T03:57:03;1.86;91.40
65598;SHT31;52267;51.984;20.956;2022-12-07T03:59:31;1.83;91.32
65598;SHT31;52267;51.984;20.956;2022-12-07T04:02:03;1.80;91.38
65598;SHT31;52267;51.984;20.956;2022-12-07T04:04:31;1.79;91.39
65598;SHT31;52267;51.984;20.956;2022-12-07T04:06:58;1.80;91.32
65598;SHT31;52267;51.984;20.956;2022-12-07T04:09:25;1.77;91.40
65598;SHT31;52267;51.984;20.956;2022-12-07T04:11:53;1.73;91.44
65598;SHT31;52267;51.984;20.956;2022-12-07T04:14:20;1.72;91.41
65598;SHT31;52267;51.984;20.956;2022-12-07T04:16:50;1.69;91.40
65598;SHT31;52267;51.984;20.956;2022-12-07T04:19:20;1.65;91.54
65598;SHT31;52267;51.984;20.956;2022-12-07T04:21:48;1.64;91.56
65598;SHT31;52267;51.984;20.956;2022-12-07T04:24:15;1.63;91.49
65598;SHT31;52267;51.984;20.956;2022-12-07T04:26:43;1.62;91.46
65598;SHT31;52267;51.984;20.956;2022-12-07T04:29:10;1.61;91.49
65598;SHT31;52267;51.984;20.956;2022-12-07T04:31:38;1.62;91.47
65598;SHT31;52267;51.984;20.956;2022-12-07T04:34:05;1.61;91.42
65598;SHT31;52267;51.984;20.956;2022-12-07T04:36:33;1.59;91.40
65598;SHT31;52267;51.984;20.956;2022-12-07T04:39:00;1.59;91.38
65598;SHT31;52267;51.984;20.956;2022-12-07T04:41:27;1.59;91.43
65598;SHT31;52267;51.984;20.956;2022-12-07T04:43:55;1.56;91.43
65598;SHT31;52267;51.984;20.956;2022-12-07T04:46:25;1.55;91.43
65598;SHT31;52267;51.984;20.956;2022-12-07T04:48:53;1.53;91.56
65598;SHT31;52267;51.984;20.956;2022-12-07T04:51:22;1.53;91.63
65598;SHT31;52267;51.984;20.956;2022-12-07T04:53:50;1.52;91.61
65598;SHT31;52267;51.984;20.956;2022-12-07T04:56:18;1.53;91.59
65598;SHT31;52267;51.984;20.956;2022-12-07T04:58:46;1.52;91.60
65598;SHT31;52267;51.984;20.956;2022-12-07T05:01:14;1.52;91.62
65598;SHT31;52267;51.984;20.956;2022-12-07T05:03:42;1.50;91.71
65598;SHT31;52267;51.984;20.956;2022-12-07T05:06:10;1.50;91.66
65598;SHT31;52267;51.984;20.956;2022-12-07T05:08:37;1.47;91.72
65598;SHT31;52267;51.984;20.956;2022-12-07T05:11:05;1.47;91.79
65598;SHT31;52267;51.984;20.956;2022-12-07T05:13:33;1.47;91.86
65598;SHT31;52267;51.984;20.956;2022-12-07T05:16:00;1.46;91.89
65598;SHT31;52267;51.984;20.956;2022-12-07T05:18:27;1.46;91.90
65598;SHT31;52267;51.984;20.956;2022-12-07T05:20:54;1.47;91.89
65598;SHT31;52267;51.984;20.956;2022-12-07T05:23:21;1.47;91.89
65598;SHT31;52267;51.984;20.956;2022-12-07T05:25:48;1.48;91.91
65598;SHT31;52267;51.984;20.956;2022-12-07T05:28:15;1.49;91.81
65598;SHT31;52267;51.984;20.956;2022-12-07T05:30:42;1.49;91.79
65598;SHT31;52267;51.984;20.956;2022-12-07T05:33:09;1.50;91.78
65598;SHT31;52267;51.984;20.956;2022-12-07T05:35:36;1.50;91.80
65598;SHT31;52267;51.984;20.956;2022-12-07T05:38:04;1.49;91.78
65598;SHT31;52267;51.984;20.956;2022-12-07T05:40:31;1.46;91.78
65598;SHT31;52267;51.984;20.956;2022-12-07T05:42:58;1.44;91.86
65598;SHT31;52267;51.984;20.956;2022-12-07T05:45:25;1.44;91.93
65598;SHT31;52267;51.984;20.956;2022-12-07T05:47:52;1.43;91.90
65598;SHT31;52267;51.984;20.956;2022-12-07T05:50:19;1.43;91.89
65598;SHT31;52267;51.984;20.956;2022-12-07T05:52:46;1.45;91.81
65598;SHT31;52267;51.984;20.956;2022-12-07T05:55:13;1.43;91.86
65598;SHT31;52267;51.984;20.956;2022-12-07T05:57:40;1.41;91.90
65598;SHT31;52267;51.984;20.956;2022-12-07T06:00:27;1.41;91.91
65598;SHT31;52267;51.984;20.956;2022-12-07T06:02:54;1.41;91.80
65598;SHT31;52267;51.984;20.956;2022-12-07T06:05:21;1.40;91.73
65598;SHT31;52267;51.984;20.956;2022-12-07T06:07:48;1.38;91.70
65598;SHT31;52267;51.984;20.956;2022-12-07T06:10:15;1.36;91.71
65598;SHT31;52267;51.984;20.956;2022-12-07T06:12:42;1.34;91.77
65598;SHT31;52267;51.984;20.956;2022-12-07T06:15:12;1.34;91.78
65598;SHT31;52267;51.984;20.956;2022-12-07T06:17:39;1.36;91.79
65598;SHT31;52267;51.984;20.956;2022-12-07T06:20:06;1.35;91.70
65598;SHT31;52267;51.984;20.956;2022-12-07T06:22:34;1.33;91.70
65598;SHT31;52267;51.984;20.956;2022-12-07T06:25:01;1.33;91.71
65598;SHT31;52267;51.984;20.956;2022-12-07T06:27:28;1.32;91.79
65598;SHT31;52267;51.984;20.956;2022-12-07T06:29:55;1.31;91.89
65598;SHT31;52267;51.984;20.956;2022-12-07T06:32:22;1.32;91.89
65598;SHT31;52267;51.984;20.956;2022-12-07T06:34:49;1.29;92.00
65598;SHT31;52267;51.984;20.956;2022-12-07T06:37:16;1.28;91.89
65598;SHT31;52267;51.984;20.956;2022-12-07T06:39:43;1.30;91.87
65598;SHT31;52267;51.984;20.956;2022-12-07T06:42:11;1.29;91.82
65598;SHT31;52267;51.984;20.956;2022-12-07T06:44:38;1.29;91.83
65598;SHT31;52267;51.984;20.956;2022-12-07T06:47:05;1.30;91.79
65598;SHT31;52267;51.984;20.956;2022-12-07T06:49:34;1.32;91.82
65598;SHT31;52267;51.984;20.956;2022-12-07T06:52:01;1.33;91.83
65598;SHT31;52267;51.984;20.956;2022-12-07T06:54:28;1.32;91.89
65598;SHT31;52267;51.984;20.956;2022-12-07T06:56:56;1.30;91.98
65598;SHT31;52267;51.984;20.956;2022-12-07T06:59:24;1.30;92.04
65598;SHT31;52267;51.984;20.956;2022-12-07T07:01:51;1.29;92.04
65598;SHT31;52267;51.984;20.956;2022-12-07T07:04:18;1.29;92.05
65598;SHT31;52267;51.984;20.956;2022-12-07T07:06:45;1.27;92.08
65598;SHT31;52267;51.984;20.956;2022-12-07T07:09:12;1.25;92.22
65598;SHT31;52267;51.984;20.956;2022-12-07T07:11:39;1.25;92.20
65598;SHT31;52267;51.984;20.956;2022-12-07T07:14:06;1.26;92.17
65598;SHT31;52267;51.984;20.956;2022-12-07T07:16:33;1.27;92.32
65598;SHT31;52267;51.984;20.956;2022-12-07T07:19:00;1.27;92.30
65598;SHT31;52267;51.984;20.956;2022-12-07T07:21:27;1.30;92.30
65598;SHT31;52267;51.984;20.956;2022-12-07T07:23:54;1.31;92.29
65598;SHT31;52267;51.984;20.956;2022-12-07T07:26:22;1.30;92.31
65598;SHT31;52267;51.984;20.956;2022-12-07T07:28:49;1.33;92.26
65598;SHT31;52267;51.984;20.956;2022-12-07T07:31:16;1.33;92.25
65598;SHT31;52267;51.984;20.956;2022-12-07T07:33:44;1.35;92.20
65598;SHT31;52267;51.984;20.956;2022-12-07T07:36:12;1.36;92.14
65598;SHT31;52267;51.984;20.956;2022-12-07T07:38:39;1.37;92.13
65598;SHT31;52267;51.984;20.956;2022-12-07T07:41:06;1.38;92.19
65598;SHT31;52267;51.984;20.956;2022-12-07T07:43:33;1.42;92.10
65598;SHT31;52267;51.984;20.956;2022-12-07T07:46:00;1.43;92.00
65598;SHT31;52267;51.984;20.956;2022-12-07T07:48:27;1.45;91.90
65598;SHT31;52267;51.984;20.956;2022-12-07T07:50:54;1.45;92.00
65598;SHT31;52267;51.984;20.956;2022-12-07T07:53:21;1.47;91.88
65598;SHT31;52267;51.984;20.956;2022-12-07T07:55:52;1.48;91.86
65598;SHT31;52267;51.984;20.956;2022-12-07T07:58:20;1.48;91.81
65598;SHT31;52267;51.984;20.956;2022-12-07T08:00:47;1.48;91.86
65598;SHT31;52267;51.984;20.956;2022-12-07T08:03:15;1.48;91.80
65598;SHT31;52267;51.984;20.956;2022-12-07T08:05:41;1.47;91.79
65598;SHT31;52267;51.984;20.956;2022-12-07T08:08:09;1.49;91.80
65598;SHT31;52267;51.984;20.956;2022-12-07T08:10:36;1.50;91.79
65598;SHT31;52267;51.984;20.956;2022-12-07T08:13:03;1.50;91.89
65598;SHT31;52267;51.984;20.956;2022-12-07T08:15:44;1.50;91.90
65598;SHT31;52267;51.984;20.956;2022-12-07T08:18:13;1.52;91.90
65598;SHT31;52267;51.984;20.956;2022-12-07T08:20:41;1.54;91.96
65598;SHT31;52267;51.984;20.956;2022-12-07T08:23:08;1.55;92.08
65598;SHT31;52267;51.984;20.956;2022-12-07T08:25:37;1.57;92.08
65598;SHT31;52267;51.984;20.956;2022-12-07T08:28:04;1.58;92.07
65598;SHT31;52267;51.984;20.956;2022-12-07T08:30:31;1.59;92.12
65598;SHT31;52267;51.984;20.956;2022-12-07T08:32:58;1.62;92.16
65598;SHT31;52267;51.984;20.956;2022-12-07T08:35:25;1.65;92.24
65598;SHT31;52267;51.984;20.956;2022-12-07T08:37:52;1.68;92.17
65598;SHT31;52267;51.984;20.956;2022-12-07T08:40:20;1.71;92.16
65598;SHT31;52267;51.984;20.956;2022-12-07T08:42:51;1.74;92.20
65598;SHT31;52267;51.984;20.956;2022-12-07T08:45:18;1.76;92.23
65598;SHT31;52267;51.984;20.956;2022-12-07T08:48:01;1.82;92.21
65598;SHT31;52267;51.984;20.956;2022-12-07T08:50:31;1.86;92.20
65598;SHT31;52267;51.984;20.956;2022-12-07T08:52:58;1.91;92.12
65598;SHT31;52267;51.984;20.956;2022-12-07T08:55:26;1.96;92.02
65598;SHT31;52267;51.984;20.956;2022-12-07T08:57:54;2.00;92.00
65598;SHT31;52267;51.984;20.956;2022-12-07T09:00:21;2.02;92.00
65598;SHT31;52267;51.984;20.956;2022-12-07T09:02:48;2.04;92.00
65598;SHT31;52267;51.984;20.956;2022-12-07T09:05:15;2.08;92.08
65598;SHT31;52267;51.984;20.956;2022-12-07T09:07:46;2.12;92.10
65598;SHT31;52267;51.984;20.956;2022-12-07T09:10:15;2.16;92.06
65598;SHT31;52267;51.984;20.956;2022-12-07T09:12:42;2.19;92.00
65598;SHT31;52267;51.984;20.956;2022-12-07T09:15:10;2.23;92.00
65598;SHT31;52267;51.984;20.956;2022-12-07T09:17:37;2.26;92.00
65598;SHT31;52267;51.984;20.956;2022-12-07T09:20:04;2.29;92.01
65598;SHT31;52267;51.984;20.956;2022-12-07T09:22:32;2.32;91.90
65598;SHT31;52267;51.984;20.956;2022-12-07T09:25:00;2.36;91.90
65598;SHT31;52267;51.984;20.956;2022-12-07T09:27:27;2.40;91.87
65598;SHT31;52267;51.984;20.956;2022-12-07T09:29:54;2.42;91.81
65598;SHT31;52267;51.984;20.956;2022-12-07T09:32:22;2.43;91.81
65598;SHT31;52267;51.984;20.956;2022-12-07T09:34:49;2.47;91.80
65598;SHT31;52267;51.984;20.956;2022-12-07T09:37:16;2.49;91.74
65598;SHT31;52267;51.984;20.956;2022-12-07T09:39:43;2.50;91.70
65598;SHT31;52267;51.984;20.956;2022-12-07T09:42:13;2.53;91.61
65598;SHT31;52267;51.984;20.956;2022-12-07T09:45:15;2.54;91.51
65598;SHT31;52267;51.984;20.956;2022-12-07T09:47:44;2.57;91.48
65598;SHT31;52267;51.984;20.956;2022-12-07T09:50:21;2.61;91.44
65598;SHT31;52267;51.984;20.956;2022-12-07T09:52:50;2.65;91.46
65598;SHT31;52267;51.984;20.956;2022-12-07T09:55:24;2.68;91.40
65598;SHT31;52267;51.984;20.956;2022-12-07T09:57:53;2.67;91.37
65598;SHT31;52267;51.984;20.956;2022-12-07T10:00:21;2.68;91.30
65598;SHT31;52267;51.984;20.956;2022-12-07T10:02:51;2.70;91.30
65598;SHT31;52267;51.984;20.956;2022-12-07T10:05:34;2.70;91.26
65598;SHT31;52267;51.984;20.956;2022-12-07T10:08:03;2.73;91.20
65598;SHT31;52267;51.984;20.956;2022-12-07T10:10:32;2.73;91.12
65598;SHT31;52267;51.984;20.956;2022-12-07T10:13:01;2.73;91.10
65598;SHT31;52267;51.984;20.956;2022-12-07T10:15:49;2.73;91.05
65598;SHT31;52267;51.984;20.956;2022-12-07T10:18:20;2.74;91.05
65598;SHT31;52267;51.984;20.956;2022-12-07T10:23:34;2.76;91.01
65598;SHT31;52267;51.984;20.956;2022-12-07T10:28:53;2.81;90.99
65598;SHT31;52267;51.984;20.956;2022-12-07T10:31:22;2.82;91.00
65598;SHT31;52267;51.984;20.956;2022-12-07T10:33:50;2.85;90.99
65598;SHT31;52267;51.984;20.956;2022-12-07T10:38:52;2.90;90.99
65598;SHT31;52267;51.984;20.956;2022-12-07T10:41:26;2.89;90.95
65598;SHT31;52267;51.984;20.956;2022-12-07T10:43:54;2.87;90.92
65598;SHT31;52267;51.984;20.956;2022-12-07T10:54:25;2.78;90.82
65598;SHT31;52267;51.984;20.956;2022-12-07T10:57:04;2.75;90.76
65598;SHT31;52267;51.984;20.956;2022-12-07T11:00:17;2.71;90.74
65598;SHT31;52267;51.984;20.956;2022-12-07T11:08:32;2.67;90.80
65598;SHT31;52267;51.984;20.956;2022-12-07T11:16:46;2.67;90.68
65598;SHT31;52267;51.984;20.956;2022-12-07T11:23:02;2.66;90.59
65598;SHT31;52267;51.984;20.956;2022-12-07T11:31:11;2.63;90.56
65598;SHT31;52267;51.984;20.956;2022-12-07T11:33:47;2.62;90.59
65598;SHT31;52267;51.984;20.956;2022-12-07T11:36:38;2.60;90.60
65598;SHT31;52267;51.984;20.956;2022-12-07T11:41:48;2.60;90.66
65598;SHT31;52267;51.984;20.956;2022-12-07T11:47:01;2.58;90.69
65598;SHT31;52267;51.984;20.956;2022-12-07T11:49:47;2.59;90.82
65598;SHT31;52267;51.984;20.956;2022-12-07T11:52:22;2.62;90.80
65598;SHT31;52267;51.984;20.956;2022-12-07T11:54:54;2.64;90.78
65598;SHT31;52267;51.984;20.956;2022-12-07T11:57:27;2.66;90.87
65598;SHT31;52267;51.984;20.956;2022-12-07T12:00:06;2.69;90.97
65598;SHT31;52267;51.984;20.956;2022-12-07T12:03:01;2.70;90.91
65598;SHT31;52267;51.984;20.956;2022-12-07T12:05:29;2.70;90.98
65598;SHT31;52267;51.984;20.956;2022-12-07T12:20:01;2.71;91.10
65598;SHT31;52267;51.984;20.956;2022-12-07T12:23:34;2.73;91.00
65598;SHT31;52267;51.984;20.956;2022-12-07T12:25:54;2.74;91.15
65598;SHT31;52267;51.984;20.956;2022-12-07T12:28:35;2.75;91.11
65598;SHT31;52267;51.984;20.956;2022-12-07T12:33:52;2.75;91.10
65598;SHT31;52267;51.984;20.956;2022-12-07T12:54:24;2.70;90.90
65598;SHT31;52267;51.984;20.956;2022-12-07T13:04:54;2.64;90.88
65598;SHT31;52267;51.984;20.956;2022-12-07T13:15:33;2.65;90.92
65598;SHT31;52267;51.984;20.956;2022-12-07T13:23:38;2.64;90.80
65598;SHT31;52267;51.984;20.956;2022-12-07T13:31:38;2.61;90.82
65598;SHT31;52267;51.984;20.956;2022-12-07T13:34:27;2.59;90.74
65598;SHT31;52267;51.984;20.956;2022-12-07T13:37:00;2.61;90.71
65598;SHT31;52267;51.984;20.956;2022-12-07T13:39:28;2.61;90.61
65598;SHT31;52267;51.984;20.956;2022-12-07T13:41:56;2.60;90.59
65598;SHT31;52267;51.984;20.956;2022-12-07T13:44:25;2.58;90.54
65598;SHT31;52267;51.984;20.956;2022-12-07T13:49:45;2.55;90.37
65598;SHT31;52267;51.984;20.956;2022-12-07T13:52:18;2.54;90.30
65598;SHT31;52267;51.984;20.956;2022-12-07T13:54:58;2.53;90.16
65598;SHT31;52267;51.984;20.956;2022-12-07T13:57:27;2.52;90.08
65598;SHT31;52267;51.984;20.956;2022-12-07T13:59:55;2.49;90.01
65598;SHT31;52267;51.984;20.956;2022-12-07T14:05:09;2.46;90.04
65598;SHT31;52267;51.984;20.956;2022-12-07T14:08:32;2.46;89.99
65598;SHT31;52267;51.984;20.956;2022-12-07T14:10:40;2.44;89.98
65598;SHT31;52267;51.984;20.956;2022-12-07T14:13:30;2.41;89.89
65598;SHT31;52267;51.984;20.956;2022-12-07T14:16:02;2.40;89.82
65598;SHT31;52267;51.984;20.956;2022-12-07T14:23:42;2.32;89.52
65598;SHT31;52267;51.984;20.956;2022-12-07T14:28:36;2.25;89.50
65598;SHT31;52267;51.984;20.956;2022-12-07T14:31:09;2.23;89.55
65598;SHT31;52267;51.984;20.956;2022-12-07T14:33:41;2.20;89.58
65598;SHT31;52267;51.984;20.956;2022-12-07T14:36:09;2.20;89.61
65598;SHT31;52267;51.984;20.956;2022-12-07T14:38:37;2.15;89.64
65598;SHT31;52267;51.984;20.956;2022-12-07T14:41:06;2.12;89.68
65598;SHT31;52267;51.984;20.956;2022-12-07T14:43:57;2.08;89.72
65598;SHT31;52267;51.984;20.956;2022-12-07T14:46:25;2.04;89.78
65598;SHT31;52267;51.984;20.956;2022-12-07T14:48:52;1.98;89.85
65598;SHT31;52267;51.984;20.956;2022-12-07T14:51:19;1.96;89.92
65598;SHT31;52267;51.984;20.956;2022-12-07T14:53:48;1.93;89.99
65598;SHT31;52267;51.984;20.956;2022-12-07T14:56:16;1.88;90.05
65598;SHT31;52267;51.984;20.956;2022-12-07T14:58:43;1.84;90.23
65598;SHT31;52267;51.984;20.956;2022-12-07T15:01:10;1.81;90.30
65598;SHT31;52267;51.984;20.956;2022-12-07T15:03:37;1.77;90.41
65598;SHT31;52267;51.984;20.956;2022-12-07T15:06:05;1.73;90.52
65598;SHT31;52267;51.984;20.956;2022-12-07T15:08:33;1.70;90.69
65598;SHT31;52267;51.984;20.956;2022-12-07T15:11:00;1.70;90.72
65598;SHT31;52267;51.984;20.956;2022-12-07T15:13:27;1.68;90.68
65598;SHT31;52267;51.984;20.956;2022-12-07T15:16:13;1.63;90.87
65598;SHT31;52267;51.984;20.956;2022-12-07T15:18:43;1.62;90.86
65598;SHT31;52267;51.984;20.956;2022-12-07T15:21:12;1.60;90.93
65598;SHT31;52267;51.984;20.956;2022-12-07T15:23:41;1.63;90.94
65598;SHT31;52267;51.984;20.956;2022-12-07T15:26:11;1.58;91.14
65598;SHT31;52267;51.984;20.956;2022-12-07T15:28:38;1.60;91.09
65598;SHT31;52267;51.984;20.956;2022-12-07T15:31:16;1.60;91.16
65598;SHT31;52267;51.984;20.956;2022-12-07T15:33:43;1.58;91.19
65598;SHT31;52267;51.984;20.956;2022-12-07T15:36:15;1.59;91.11
65598;SHT31;52267;51.984;20.956;2022-12-07T15:38:47;1.57;91.24
65598;SHT31;52267;51.984;20.956;2022-12-07T15:41:15;1.56;91.36
65598;SHT31;52267;51.984;20.956;2022-12-07T15:43:42;1.58;91.38
65598;SHT31;52267;51.984;20.956;2022-12-07T15:46:38;1.58;91.34
65598;SHT31;52267;51.984;20.956;2022-12-07T15:49:09;1.59;91.37
65598;SHT31;52267;51.984;20.956;2022-12-07T15:51:41;1.61;91.34
65598;SHT31;52267;51.984;20.956;2022-12-07T15:54:13;1.63;91.51
65598;SHT31;52267;51.984;20.956;2022-12-07T15:56:45;1.62;91.85
65598;SHT31;52267;51.984;20.956;2022-12-07T15:59:13;1.64;91.88
65598;SHT31;52267;51.984;20.956;2022-12-07T16:01:40;1.67;91.53
65598;SHT31;52267;51.984;20.956;2022-12-07T16:04:07;1.70;91.38
65598;SHT31;52267;51.984;20.956;2022-12-07T16:06:34;1.72;91.33
65598;SHT31;52267;51.984;20.956;2022-12-07T16:09:02;1.74;91.22
65598;SHT31;52267;51.984;20.956;2022-12-07T16:11:29;1.73;91.29
65598;SHT31;52267;51.984;20.956;2022-12-07T16:13:57;1.75;91.23
65598;SHT31;52267;51.984;20.956;2022-12-07T16:16:24;1.78;91.16
65598;SHT31;52267;51.984;20.956;2022-12-07T16:18:51;1.80;91.20
65598;SHT31;52267;51.984;20.956;2022-12-07T16:21:18;1.82;91.20
65598;SHT31;52267;51.984;20.956;2022-12-07T16:23:46;1.83;91.13
65598;SHT31;52267;51.984;20.956;2022-12-07T16:26:14;1.84;91.16
65598;SHT31;52267;51.984;20.956;2022-12-07T16:28:42;1.85;91.18
65598;SHT31;52267;51.984;20.956;2022-12-07T16:31:11;1.88;91.14
65598;SHT31;52267;51.984;20.956;2022-12-07T16:33:40;1.88;91.13
65598;SHT31;52267;51.984;20.956;2022-12-07T16:36:09;1.90;91.10
65598;SHT31;52267;51.984;20.956;2022-12-07T16:38:37;1.92;91.01
65598;SHT31;52267;51.984;20.956;2022-12-07T16:41:05;1.91;91.08
65598;SHT31;52267;51.984;20.956;2022-12-07T16:43:33;1.91;91.11
65598;SHT31;52267;51.984;20.956;2022-12-07T16:46:01;1.91;91.10
65598;SHT31;52267;51.984;20.956;2022-12-07T16:48:29;1.93;91.04
65598;SHT31;52267;51.984;20.956;2022-12-07T16:50:56;1.92;91.00
65598;SHT31;52267;51.984;20.956;2022-12-07T16:53:23;1.92;91.06
65598;SHT31;52267;51.984;20.956;2022-12-07T16:55:51;1.92;91.09
65598;SHT31;52267;51.984;20.956;2022-12-07T16:58:18;1.93;91.05
65598;SHT31;52267;51.984;20.956;2022-12-07T17:00:46;1.94;90.99
65598;SHT31;52267;51.984;20.956;2022-12-07T17:03:13;1.93;91.00
65598;SHT31;52267;51.984;20.956;2022-12-07T17:05:41;1.95;90.97
65598;SHT31;52267;51.984;20.956;2022-12-07T17:08:09;1.95;90.97
65598;SHT31;52267;51.984;20.956;2022-12-07T17:10:38;1.95;90.94
65598;SHT31;52267;51.984;20.956;2022-12-07T17:13:07;1.95;90.90
65598;SHT31;52267;51.984;20.956;2022-12-07T17:15:56;1.94;90.90
65598;SHT31;52267;51.984;20.956;2022-12-07T17:18:26;1.94;90.85
65598;SHT31;52267;51.984;20.956;2022-12-07T17:20:55;1.96;90.82
65598;SHT31;52267;51.984;20.956;2022-12-07T17:23:22;1.96;90.84
65598;SHT31;52267;51.984;20.956;2022-12-07T17:25:51;1.97;90.91
65598;SHT31;52267;51.984;20.956;2022-12-07T17:28:18;2.00;90.83
65598;SHT31;52267;51.984;20.956;2022-12-07T17:30:45;2.01;90.74
65598;SHT31;52267;51.984;20.956;2022-12-07T17:33:13;2.02;90.77
65598;SHT31;52267;51.984;20.956;2022-12-07T17:35:40;2.02;90.71
65598;SHT31;52267;51.984;20.956;2022-12-07T17:38:07;2.03;90.61
65598;SHT31;52267;51.984;20.956;2022-12-07T17:40:35;2.05;90.63
65598;SHT31;52267;51.984;20.956;2022-12-07T17:43:02;2.06;90.52
65598;SHT31;52267;51.984;20.956;2022-12-07T17:45:29;2.06;90.49
65598;SHT31;52267;51.984;20.956;2022-12-07T17:47:57;2.06;90.48
65598;SHT31;52267;51.984;20.956;2022-12-07T17:50:24;2.06;90.43
65598;SHT31;52267;51.984;20.956;2022-12-07T17:53:11;2.07;90.48
65598;SHT31;52267;51.984;20.956;2022-12-07T17:55:38;2.06;90.40
65598;SHT31;52267;51.984;20.956;2022-12-07T17:58:06;2.05;90.40
65598;SHT31;52267;51.984;20.956;2022-12-07T18:00:33;2.05;90.31
65598;SHT31;52267;51.984;20.956;2022-12-07T18:03:05;2.06;90.29
65598;SHT31;52267;51.984;20.956;2022-12-07T18:05:36;2.06;90.28
65598;SHT31;52267;51.984;20.956;2022-12-07T18:08:04;2.07;90.22
65598;SHT31;52267;51.984;20.956;2022-12-07T18:10:32;2.07;90.19
65598;SHT31;52267;51.984;20.956;2022-12-07T18:12:59;2.07;90.22
65598;SHT31;52267;51.984;20.956;2022-12-07T18:15:46;2.08;90.17
65598;SHT31;52267;51.984;20.956;2022-12-07T18:18:14;2.09;90.10
65598;SHT31;52267;51.984;20.956;2022-12-07T18:20:41;2.10;90.08